Aérodrome :
LOGIN :

S'inscrire | Disclaimer

   EN    FR    IT 

 










Légende :    VFR   VFR Marginal   IFR   IFR Intensif   IFR Très Intensif
Visi : 
Plafond : 
>= 8 km
>= 3000ft
5 à 8 km
1000 à 3000 ft
1500m à 5 km
500 à 1000 ft
800 à 1500m
200 à 500 ft
< 800m
< 200 ft
Symboles :   Orages  Brouillard  Fortes neiges  Fortes précipitations  Vent > 20 kt
SIGMETs :   Divers  Orages  Givrage  Turbulence  Onde Orograph.  Cendres Volcan.






- Altitude de l'aérodrome : 161 ft


LRTZ - Tuzla Romania

DERNIER METAR :
  • 272000Z 23003KT 3000 BR FEW025 SCT040 OVC070 07/07 Q1013 YLO YLO

METARs EXPIRÉS :
  • 271900Z 20004KT 4000 BR FEW025 SCT040 OVC080 08/07 Q1013 GRN GRN

TAF TAF LRTZ
Valide du 27 à 18h jusqu'au 28 à 18h UTC


271700Z 2718/2818 20008KT 4000 BR FEW020 BKN040 OVC100
BECMG 2720/2722 27012KT 2000 RA BR SCT007 BKN017 OVC035
BECMG 2807/2809 8000 NSW BKN020 BKN100



MET'MAP, la Météo Aéronautique d'un coup d'oeil ! - Copyright ORBIFLY Décembre 2007 - Disclaimer

ORBIFLY MET'MAP TEAM :

Programmation & Développement : Alexandra Zaïnal
Sur une idée originale de : Baudouin d'Aumeries
Assistance à la programmation : Marc-Olivier Méhu
Soutien technique & logistique : Manuel Goepfert

Contact : metmap@orbifly.com




SOURCES & CREDITS :

   NOAA